createdAt,value
2022-07-31T00:02:17.929Z,80.3
2022-07-31T00:07:52.779Z,80.5
2022-07-31T00:13:58.845Z,80.5
2022-07-31T00:19:55.840Z,80.6
2022-07-31T00:25:28.642Z,80.7
2022-07-31T00:31:03.395Z,80.8
2022-07-31T00:36:38.248Z,81.1
2022-07-31T00:42:14.191Z,81.1
2022-07-31T00:47:56.072Z,81.3
2022-07-31T00:53:32.022Z,81.5
2022-07-31T00:59:07.051Z,81.6
2022-07-31T01:04:45.808Z,81.5
2022-07-31T01:10:20.888Z,81.7
2022-07-31T01:15:55.664Z,81.8
2022-07-31T01:21:30.594Z,82
2022-07-31T01:27:06.419Z,82.2
2022-07-31T01:32:41.899Z,82.1
2022-07-31T01:38:16.703Z,82.3
2022-07-31T01:43:52.691Z,82.4
2022-07-31T01:49:28.757Z,81.9
2022-07-31T01:55:04.420Z,81.9
2022-07-31T02:00:40.529Z,82.4
2022-07-31T02:06:16.657Z,82.6
2022-07-31T02:11:55.438Z,82.5
2022-07-31T02:17:53.430Z,82.7
2022-07-31T02:23:27.149Z,82.7
2022-07-31T02:29:02.220Z,82.8
2022-07-31T02:34:37.380Z,82.6
2022-07-31T02:40:12.237Z,82.7
2022-07-31T02:45:48.564Z,82.6
2022-07-31T02:51:24.394Z,83
2022-07-31T02:56:59.308Z,83.3
2022-07-31T03:02:38.504Z,83.3
2022-07-31T03:08:13.198Z,83.2
2022-07-31T03:13:48.015Z,83.2
2022-07-31T03:19:44.706Z,83.1
2022-07-31T03:25:22.360Z,83.3
2022-07-31T03:30:57.346Z,83.3
2022-07-31T03:36:32.020Z,83.3
2022-07-31T03:42:18.550Z,83.3
2022-07-31T03:47:54.422Z,83.3
2022-07-31T03:53:30.088Z,83.2
2022-07-31T03:59:07.382Z,83.1
2022-07-31T04:04:43.412Z,83.5
2022-07-31T04:10:18.175Z,83.4
2022-07-31T04:15:53.071Z,83.1
2022-07-31T04:21:27.924Z,83.2
2022-07-31T04:27:02.780Z,83.2
2022-07-31T04:32:37.620Z,83.5
2022-07-31T04:38:13.408Z,83.5
2022-07-31T04:43:48.201Z,83.4
2022-07-31T04:49:23.555Z,83.2
2022-07-31T04:54:58.944Z,83.2
2022-07-31T05:00:33.844Z,83.2
2022-07-31T05:06:10.539Z,83.3
2022-07-31T05:11:46.840Z,83.6
2022-07-31T05:17:43.596Z,83.8
2022-07-31T05:23:16.520Z,84
2022-07-31T05:28:58.704Z,83.9
2022-07-31T05:34:33.688Z,83.9
2022-07-31T05:40:09.602Z,84
2022-07-31T05:45:44.424Z,84.4
2022-07-31T05:51:20.499Z,84.3
2022-07-31T05:56:57.475Z,84.6
2022-07-31T06:02:32.261Z,84.6
2022-07-31T06:08:09.048Z,84.7
2022-07-31T06:13:44.429Z,84.5
2022-07-31T06:19:41.186Z,84.4
2022-07-31T06:25:15.223Z,84.1
2022-07-31T06:30:51.304Z,84.2
2022-07-31T06:36:26.229Z,83.1
2022-07-31T06:42:02.128Z,83.2
2022-07-31T06:47:40.623Z,82.5
2022-07-31T06:53:16.696Z,81.9
2022-07-31T06:58:51.621Z,81.6
2022-07-31T07:05:07.119Z,81.2
2022-07-31T07:10:42.111Z,80.3
2022-07-31T07:16:38.990Z,79.4
2022-07-31T07:22:12.577Z,78
2022-07-31T07:27:47.343Z,78.8
2022-07-31T07:33:42.853Z,77.3
2022-07-31T07:39:19.010Z,77.5
2022-07-31T07:44:53.803Z,76.6
2022-07-31T07:50:29.776Z,75.9
2022-07-31T07:56:04.769Z,74.8
2022-07-31T08:01:39.823Z,73.5
2022-07-31T08:07:15.770Z,74
2022-07-31T08:12:50.774Z,76.9
2022-07-31T08:18:47.365Z,78.1
2022-07-31T08:24:20.099Z,78.4
2022-07-31T08:29:57.093Z,78.7
2022-07-31T08:35:32.943Z,79
2022-07-31T08:41:07.716Z,79.3
2022-07-31T08:46:42.500Z,79.4
2022-07-31T08:52:18.232Z,79.4
2022-07-31T08:57:53.234Z,79.4
2022-07-31T09:03:28.014Z,79.3
2022-07-31T09:09:02.892Z,79.4
2022-07-31T09:14:37.977Z,79.2
2022-07-31T09:20:12.740Z,78.5
2022-07-31T09:25:47.983Z,78.6
2022-07-31T09:31:26.542Z,78.4
2022-07-31T09:37:02.056Z,78.2
2022-07-31T09:42:48.480Z,78.1
2022-07-31T09:48:32.376Z,78.2
2022-07-31T09:54:10.658Z,78.4
2022-07-31T09:59:45.511Z,78.1
2022-07-31T10:05:20.837Z,78
2022-07-31T10:10:56.003Z,77.9
2022-07-31T10:16:52.535Z,78
2022-07-31T10:22:25.428Z,78.2
2022-07-31T10:28:00.342Z,77.5
2022-07-31T10:33:45.247Z,77.2
2022-07-31T10:39:20.274Z,77.2
2022-07-31T10:44:55.086Z,77.1
2022-07-31T10:50:39.987Z,76.4
2022-07-31T10:56:14.999Z,76.4
2022-07-31T11:01:53.592Z,76.5
2022-07-31T11:07:29.098Z,76.2
2022-07-31T11:13:03.965Z,75.9
2022-07-31T11:19:00.550Z,76.1
2022-07-31T11:24:33.145Z,76.8
2022-07-31T11:30:13.794Z,76.7
2022-07-31T11:35:49.154Z,76.2
2022-07-31T11:41:25.053Z,76
2022-07-31T11:46:59.885Z,76.4
2022-07-31T11:52:38.003Z,75.9
2022-07-31T11:58:12.859Z,75.9
2022-07-31T12:03:48.677Z,75.7
2022-07-31T12:10:03.635Z,75.5
2022-07-31T12:15:39.147Z,75.4
2022-07-31T12:21:14.050Z,74.9
2022-07-31T12:26:48.920Z,74.1
2022-07-31T12:32:27.503Z,74
2022-07-31T12:38:38.543Z,73.6
2022-07-31T12:44:24.084Z,73.5
2022-07-31T12:49:59.867Z,73
2022-07-31T12:55:35.148Z,72.1
2022-07-31T13:01:10.076Z,71.7
2022-07-31T13:06:46.790Z,71
2022-07-31T13:12:30.613Z,70.2
2022-07-31T13:18:27.487Z,71.2
2022-07-31T13:24:01.414Z,71.1
2022-07-31T13:29:36.339Z,70.6
2022-07-31T13:35:28.914Z,68.2
2022-07-31T13:41:04.406Z,67.3
2022-07-31T13:46:39.165Z,66.8
2022-07-31T13:52:13.906Z,66.1
2022-07-31T13:57:53.671Z,65.9
2022-07-31T14:03:36.822Z,65.5
2022-07-31T14:09:14.206Z,64.8
2022-07-31T14:14:49.063Z,63.3
2022-07-31T14:20:24.046Z,63.7
2022-07-31T14:25:59.036Z,62.7
2022-07-31T14:31:37.318Z,61.1
2022-07-31T14:37:20.281Z,60.5
2022-07-31T14:42:55.549Z,59.5
2022-07-31T14:48:30.612Z,58.1
2022-07-31T14:54:06.527Z,57.7
2022-07-31T14:59:42.456Z,56.2
2022-07-31T15:07:07.511Z,57.3
2022-07-31T15:13:22.633Z,58.6
2022-07-31T15:19:19.158Z,59.8
2022-07-31T15:24:51.744Z,60.3
2022-07-31T15:30:26.491Z,59.5
2022-07-31T15:36:02.593Z,59.2
2022-07-31T15:41:38.214Z,56.9
2022-07-31T15:47:13.244Z,56.9
2022-07-31T15:52:47.973Z,57.7
2022-07-31T15:58:22.665Z,57.9
2022-07-31T16:04:00.512Z,56.7
2022-07-31T16:10:15.081Z,56.1
2022-07-31T16:15:54.325Z,55.3
2022-07-31T16:21:29.097Z,55.3
2022-07-31T16:27:06.499Z,55.5
2022-07-31T16:32:44.175Z,55.8
2022-07-31T16:38:18.941Z,55.1
2022-07-31T16:43:53.696Z,54.7
2022-07-31T16:49:37.303Z,54.7
2022-07-31T16:55:13.550Z,54.3
2022-07-31T17:00:48.884Z,53.7
2022-07-31T17:06:37.836Z,54
2022-07-31T17:12:13.289Z,54.2
2022-07-31T17:18:09.834Z,55.2
2022-07-31T17:23:51.508Z,55.9
2022-07-31T17:29:26.564Z,56.6
2022-07-31T17:35:01.158Z,57.6
2022-07-31T17:40:44.667Z,58.4
2022-07-31T17:46:34.836Z,59.3
2022-07-31T17:52:24.124Z,59.5
2022-07-31T17:57:58.852Z,59.8
2022-07-31T18:03:33.521Z,60.1
2022-07-31T18:09:10.289Z,60.4
2022-07-31T18:14:45.102Z,60.8
2022-07-31T18:20:20.421Z,61.1
2022-07-31T18:25:56.244Z,61.4
2022-07-31T18:31:36.243Z,61.8
2022-07-31T18:37:11.503Z,62.1
2022-07-31T18:42:46.355Z,62.3
2022-07-31T18:48:22.042Z,62.9
2022-07-31T18:53:56.687Z,63.4
2022-07-31T18:59:32.451Z,64
2022-07-31T19:05:07.396Z,64.7
2022-07-31T19:10:56.754Z,68.2
2022-07-31T19:16:53.559Z,71.8
2022-07-31T19:22:30.818Z,72.3
2022-07-31T19:28:11.872Z,73.3
2022-07-31T19:33:52.159Z,74
2022-07-31T19:39:26.896Z,74.8
2022-07-31T19:45:02.746Z,74.7
2022-07-31T19:50:37.386Z,75.4
2022-07-31T19:56:21.172Z,76.1
2022-07-31T20:01:56.253Z,76.6
2022-07-31T20:07:33.354Z,76.8
2022-07-31T20:13:10.357Z,77.9
2022-07-31T20:19:07.270Z,77.7
2022-07-31T20:24:43.322Z,78.4
2022-07-31T20:30:18.795Z,78.5
2022-07-31T20:35:54.456Z,79
2022-07-31T20:41:30.330Z,78.3
2022-07-31T20:47:05.194Z,79.2
2022-07-31T20:52:40.042Z,79.6
2022-07-31T20:58:23.514Z,79
2022-07-31T21:03:58.351Z,80.8
2022-07-31T21:09:36.302Z,80.9
2022-07-31T21:15:45.030Z,80.6
2022-07-31T21:21:22.956Z,81
2022-07-31T21:26:58.411Z,80.5
2022-07-31T21:32:36.650Z,82.2
2022-07-31T21:38:12.784Z,81.6
2022-07-31T21:44:00.058Z,82.7
2022-07-31T21:49:37.623Z,82.6
2022-07-31T21:55:12.855Z,82
2022-07-31T22:00:47.968Z,80.9
2022-07-31T22:06:26.654Z,78.7
2022-07-31T22:12:02.579Z,77.8
2022-07-31T22:17:59.189Z,77.3
2022-07-31T22:23:31.725Z,77.3
2022-07-31T22:29:06.479Z,77.1
2022-07-31T22:34:41.302Z,77
2022-07-31T22:40:16.236Z,76.8
2022-07-31T22:45:51.215Z,76.8
2022-07-31T22:51:26.028Z,76.8
2022-07-31T22:57:01.774Z,76.8
2022-07-31T23:02:38.008Z,76.8
2022-07-31T23:08:13.819Z,76.8
2022-07-31T23:13:48.697Z,76.9
2022-07-31T23:19:53.854Z,76.9
2022-07-31T23:25:27.549Z,76.9
2022-07-31T23:31:02.285Z,77
2022-07-31T23:36:37.128Z,77
2022-07-31T23:42:11.974Z,77.1
2022-07-31T23:47:48.089Z,77.1
2022-07-31T23:53:23.799Z,77.2
2022-07-31T23:58:58.920Z,77.3
